createdAt,value
2023-03-12T00:00:43.229Z,1.22
2023-03-12T00:03:46.064Z,1.20
2023-03-12T00:06:48.428Z,1.18
2023-03-12T00:09:51.079Z,1.17
2023-03-12T00:12:53.479Z,1.15
2023-03-12T00:15:56.145Z,1.19
2023-03-12T00:18:58.486Z,1.18
2023-03-12T00:22:01.239Z,1.17
2023-03-12T00:25:04.497Z,1.15
2023-03-12T00:28:07.081Z,1.08
2023-03-12T00:31:17.591Z,0.97
2023-03-12T00:34:20.549Z,0.88
2023-03-12T00:37:22.986Z,0.88
2023-03-12T00:40:25.711Z,0.91
2023-03-12T00:43:28.056Z,0.92
2023-03-12T00:46:30.735Z,0.93
2023-03-12T00:49:33.085Z,0.89
2023-03-12T00:52:36.296Z,0.91
2023-03-12T00:55:38.693Z,0.91
2023-03-12T00:58:42.877Z,0.88
2023-03-12T01:01:45.586Z,0.85
2023-03-12T01:04:48.390Z,0.84
2023-03-12T01:07:50.859Z,0.95
2023-03-12T01:10:53.759Z,1.02
2023-03-12T01:13:56.072Z,0.98
2023-03-12T01:16:58.730Z,1.06
2023-03-12T01:20:01.891Z,1.06
2023-03-12T01:23:04.779Z,1.04
2023-03-12T01:26:07.266Z,1.02
2023-03-12T01:29:10.289Z,0.96
2023-03-12T01:32:12.782Z,0.91
2023-03-12T01:35:15.461Z,0.83
2023-03-12T01:38:19.179Z,0.81
2023-03-12T01:41:23.174Z,0.89
2023-03-12T01:44:25.726Z,0.86
2023-03-12T01:47:31.971Z,0.82
2023-03-12T01:50:34.763Z,0.74
2023-03-12T01:53:38.382Z,0.69
2023-03-12T01:56:41.579Z,0.57
2023-03-12T01:59:56.740Z,0.57
2023-03-12T02:03:03.003Z,0.59
2023-03-12T02:06:13.265Z,0.58
2023-03-12T02:09:20.266Z,0.50
2023-03-12T02:12:23.400Z,0.43
2023-03-12T02:15:25.809Z,0.36
2023-03-12T02:18:28.578Z,0.46
2023-03-12T02:21:34.094Z,0.38
2023-03-12T02:24:39.469Z,0.32
2023-03-12T02:27:42.302Z,0.24
2023-03-12T02:30:47.205Z,0.17
2023-03-12T02:33:50.028Z,-0.13
2023-03-12T02:36:53.731Z,-0.30
2023-03-12T02:40:00.271Z,-0.35
2023-03-12T02:43:05.911Z,-0.42
2023-03-12T02:46:09.220Z,-0.45
2023-03-12T02:49:13.346Z,-0.45
2023-03-12T02:52:15.788Z,-0.38
2023-03-12T02:55:18.586Z,-0.41
2023-03-12T02:58:21.324Z,-0.38
2023-03-12T03:01:24.556Z,-0.26
2023-03-12T03:04:28.117Z,-0.37
2023-03-12T03:07:30.937Z,-0.47
2023-03-12T03:10:33.396Z,-0.60
2023-03-12T03:13:36.614Z,-0.69
2023-03-12T03:16:39.125Z,-0.63
2023-03-12T03:19:41.946Z,-0.63
2023-03-12T03:22:46.142Z,-0.52
2023-03-12T03:25:48.725Z,-0.52
2023-03-12T03:28:51.334Z,-0.58
2023-03-12T03:31:54.070Z,-0.59
2023-03-12T03:34:56.593Z,-0.61
2023-03-12T03:38:00.107Z,-0.62
2023-03-12T03:41:03.316Z,-0.66
2023-03-12T03:44:07.961Z,-0.78
2023-03-12T03:47:11.011Z,-0.72
2023-03-12T03:50:13.796Z,-0.71
2023-03-12T03:53:16.201Z,-0.66
2023-03-12T03:56:19.151Z,-0.64
2023-03-12T03:59:21.611Z,-0.64
2023-03-12T04:02:25.806Z,-0.84
2023-03-12T04:05:28.505Z,-0.81
2023-03-12T04:08:32.454Z,-0.82
2023-03-12T04:11:35.082Z,-0.79
2023-03-12T04:14:39.534Z,-0.83
2023-03-12T04:17:42.318Z,-1.05
2023-03-12T04:20:45.064Z,-1.06
2023-03-12T04:23:47.939Z,-1.02
2023-03-12T04:26:51.692Z,-1.16
2023-03-12T04:29:54.602Z,-1.11
2023-03-12T04:32:57.236Z,-1.15
2023-03-12T04:36:00.191Z,-1.27
2023-03-12T04:39:07.051Z,-1.25
2023-03-12T04:42:10.042Z,-1.35
2023-03-12T04:45:12.607Z,-1.46
2023-03-12T04:48:16.143Z,-1.47
2023-03-12T04:51:19.388Z,-1.33
2023-03-12T04:54:22.539Z,-1.30
2023-03-12T04:57:25.275Z,-1.24
2023-03-12T05:00:28.238Z,-1.17
2023-03-12T05:03:30.577Z,-1.10
2023-03-12T05:06:33.465Z,-1.07
2023-03-12T05:09:35.811Z,-1.07
2023-03-12T05:12:38.965Z,-1.05
2023-03-12T05:15:41.462Z,-0.98
2023-03-12T05:18:45.040Z,-0.98
2023-03-12T05:21:47.537Z,-0.94
2023-03-12T05:24:50.242Z,-0.88
2023-03-12T05:27:52.821Z,-0.86
2023-03-12T05:30:56.162Z,-0.83
2023-03-12T05:33:59.084Z,-0.84
2023-03-12T05:37:01.975Z,-0.82
2023-03-12T05:40:05.092Z,-0.75
2023-03-12T05:43:07.878Z,-0.68
2023-03-12T05:46:10.746Z,-0.73
2023-03-12T05:49:13.686Z,-0.73
2023-03-12T05:52:16.138Z,-0.75
2023-03-12T05:55:19.191Z,-0.66
2023-03-12T05:58:21.641Z,-0.64
2023-03-12T06:01:26.047Z,-0.62
2023-03-12T06:04:29.488Z,-0.49
2023-03-12T06:07:31.851Z,-0.41
2023-03-12T06:10:34.725Z,-0.31
2023-03-12T06:13:37.561Z,-0.13
2023-03-12T06:16:40.645Z,0.02
2023-03-12T06:19:43.989Z,1.20
2023-03-12T06:22:46.758Z,6.00
2023-03-12T06:25:49.950Z,9.16
2023-03-12T06:28:52.665Z,11.09
2023-03-12T06:31:56.113Z,13.85
2023-03-12T06:35:00.848Z,14.55
2023-03-12T06:38:03.283Z,13.14
2023-03-12T06:41:13.490Z,15.18
2023-03-12T06:44:16.219Z,15.20
2023-03-12T06:47:18.812Z,13.17
2023-03-12T06:50:21.353Z,11.43
2023-03-12T06:53:25.838Z,9.25
2023-03-12T06:56:29.267Z,8.88
2023-03-12T06:59:31.929Z,9.68
2023-03-12T07:02:34.335Z,9.00
2023-03-12T07:05:37.063Z,10.36
2023-03-12T07:08:39.395Z,10.61
2023-03-12T07:11:42.059Z,8.76
2023-03-12T07:14:44.620Z,8.33
2023-03-12T07:17:47.296Z,9.14
2023-03-12T07:20:49.680Z,8.83
2023-03-12T07:23:52.603Z,9.64
2023-03-12T07:26:54.977Z,9.93
2023-03-12T07:29:57.882Z,8.69
2023-03-12T07:33:11.194Z,6.98
2023-03-12T07:36:14.205Z,8.31
2023-03-12T07:39:16.804Z,8.65
2023-03-12T07:42:19.539Z,7.37
2023-03-12T07:45:22.886Z,7.05
2023-03-12T07:48:25.702Z,7.28
2023-03-12T07:51:28.496Z,7.60
2023-03-12T07:54:31.187Z,7.03
2023-03-12T07:57:33.760Z,6.65
2023-03-12T08:00:36.619Z,5.87
2023-03-12T08:03:39.712Z,6.21
2023-03-12T08:06:42.842Z,6.50
2023-03-12T08:09:45.885Z,6.95
2023-03-12T08:12:48.336Z,7.98
2023-03-12T08:15:51.806Z,8.88
2023-03-12T08:18:54.390Z,9.03
2023-03-12T08:21:58.073Z,9.78
2023-03-12T08:25:01.308Z,11.17
2023-03-12T08:28:04.418Z,10.77
2023-03-12T08:31:07.313Z,9.96
2023-03-12T08:34:10.272Z,11.38
2023-03-12T08:37:12.634Z,11.75
2023-03-12T08:40:15.642Z,12.35
2023-03-12T08:43:18.180Z,15.04
2023-03-12T08:46:20.850Z,13.12
2023-03-12T08:49:23.702Z,10.24
2023-03-12T08:52:26.479Z,10.30
2023-03-12T08:55:29.009Z,8.96
2023-03-12T08:58:31.751Z,7.15
2023-03-12T09:01:34.347Z,6.62
2023-03-12T09:04:37.141Z,6.69
2023-03-12T09:07:39.768Z,6.65
2023-03-12T09:10:48.973Z,6.57
2023-03-12T09:14:15.265Z,6.52
2023-03-12T09:17:14.078Z,6.75
2023-03-12T09:20:16.693Z,6.79
2023-03-12T09:23:20.060Z,6.55
2023-03-12T09:26:22.525Z,6.75
2023-03-12T09:29:25.395Z,6.46
2023-03-12T09:32:28.253Z,6.46
2023-03-12T09:35:31.634Z,6.75
2023-03-12T09:38:35.571Z,6.63
2023-03-12T09:41:39.980Z,6.62
2023-03-12T09:44:44.592Z,6.88
2023-03-12T09:47:49.412Z,6.84
2023-03-12T09:50:52.316Z,6.89
2023-03-12T09:53:57.267Z,7.12
2023-03-12T09:57:02.924Z,6.71
2023-03-12T10:00:08.201Z,6.96
2023-03-12T10:03:16.560Z,6.86
2023-03-12T10:06:24.967Z,7.17
2023-03-12T10:09:45.894Z,7.52
2023-03-12T10:12:52.041Z,7.78
2023-03-12T10:16:17.757Z,7.73
2023-03-12T10:19:28.207Z,7.78
2023-03-12T10:22:39.917Z,7.79
2023-03-12T10:25:46.120Z,7.74
2023-03-12T10:28:51.583Z,7.74
2023-03-12T10:31:54.352Z,7.59
2023-03-12T10:34:59.390Z,8.05
2023-03-12T10:38:03.467Z,8.09
2023-03-12T10:41:14.494Z,8.02
2023-03-12T10:44:20.144Z,8.02
2023-03-12T10:47:25.467Z,8.37
2023-03-12T10:50:30.639Z,8.49
2023-03-12T10:53:36.357Z,8.10
2023-03-12T10:56:50.993Z,8.55
2023-03-12T11:00:06.596Z,8.54
2023-03-12T11:03:27.978Z,8.51
2023-03-12T11:06:30.760Z,8.30
2023-03-12T11:09:33.397Z,8.04
2023-03-12T11:12:37.229Z,8.00
2023-03-12T11:15:41.167Z,8.17
2023-03-12T11:18:57.244Z,8.51
2023-03-12T11:22:08.294Z,8.51
2023-03-12T11:25:19.805Z,8.53
2023-03-12T11:28:24.475Z,8.44
2023-03-12T11:31:44.401Z,8.46
2023-03-12T11:34:49.820Z,8.54
2023-03-12T11:38:07.644Z,8.52
2023-03-12T11:41:13.105Z,8.63
2023-03-12T11:44:18.540Z,8.68
2023-03-12T11:47:26.999Z,8.67
2023-03-12T11:50:49.309Z,8.70
2023-03-12T11:53:57.652Z,8.72
2023-03-12T11:57:12.082Z,8.78
2023-03-12T12:00:17.367Z,8.78
2023-03-12T12:03:26.666Z,8.94
2023-03-12T12:06:48.355Z,9.14
2023-03-12T12:09:57.223Z,9.05
2023-03-12T12:13:06.473Z,9.01
2023-03-12T12:16:21.083Z,8.55
2023-03-12T12:19:26.481Z,8.53
2023-03-12T12:22:47.389Z,8.69
2023-03-12T12:25:49.820Z,8.79
2023-03-12T12:28:59.218Z,8.63
2023-03-12T12:32:02.142Z,8.40
2023-03-12T12:35:14.914Z,8.33
2023-03-12T12:38:30.270Z,8.48
2023-03-12T12:41:35.751Z,8.61
2023-03-12T12:44:43.707Z,8.77
2023-03-12T12:47:49.116Z,8.98
2023-03-12T12:50:52.173Z,8.88
2023-03-12T12:54:03.108Z,8.77
2023-03-12T12:57:11.416Z,8.78
2023-03-12T13:00:20.481Z,8.82
2023-03-12T13:03:24.717Z,8.79
2023-03-12T13:06:29.112Z,8.91
2023-03-12T13:09:39.414Z,8.88
2023-03-12T13:12:48.022Z,8.75
2023-03-12T13:15:50.792Z,8.86
2023-03-12T13:19:01.413Z,8.90
2023-03-12T13:22:13.820Z,8.85
2023-03-12T13:25:19.449Z,8.99
2023-03-12T13:28:32.561Z,9.11
2023-03-12T13:31:36.902Z,8.94
2023-03-12T13:34:45.646Z,8.77
2023-03-12T13:37:51.064Z,8.66
2023-03-12T13:40:55.361Z,8.84
2023-03-12T13:43:58.575Z,8.93
2023-03-12T13:47:03.055Z,8.76
2023-03-12T13:50:08.233Z,8.67
2023-03-12T13:53:16.665Z,8.71
2023-03-12T13:56:20.581Z,8.47
2023-03-12T13:59:24.417Z,8.43
2023-03-12T14:02:30.242Z,8.53
2023-03-12T14:05:43.142Z,8.39
2023-03-12T14:08:45.422Z,8.32
2023-03-12T14:12:06.344Z,8.17
2023-03-12T14:15:15.556Z,8.38
2023-03-12T14:18:23.098Z,8.49
2023-03-12T14:21:30.601Z,8.53
2023-03-12T14:24:35.427Z,8.50
2023-03-12T14:27:37.872Z,8.79
2023-03-12T14:30:49.656Z,8.85
2023-03-12T14:34:17.147Z,8.54
2023-03-12T14:37:25.751Z,8.53
2023-03-12T14:40:35.635Z,8.51
2023-03-12T14:43:38.383Z,8.21
2023-03-12T14:46:46.105Z,7.96
2023-03-12T14:49:48.830Z,8.01
2023-03-12T14:52:51.736Z,8.12
2023-03-12T14:56:10.165Z,8.25
2023-03-12T14:59:24.508Z,8.37
2023-03-12T15:02:30.178Z,8.36
2023-03-12T15:05:34.744Z,8.07
2023-03-12T15:08:39.677Z,8.02
2023-03-12T15:11:42.673Z,7.96
2023-03-12T15:14:53.327Z,7.87
2023-03-12T15:17:56.016Z,7.78
2023-03-12T15:21:01.696Z,7.82
2023-03-12T15:24:04.155Z,7.87
2023-03-12T15:27:22.254Z,7.83
2023-03-12T15:30:26.065Z,7.81
2023-03-12T15:33:28.687Z,7.69
2023-03-12T15:36:32.226Z,7.55
2023-03-12T15:39:37.265Z,7.55
2023-03-12T15:42:44.173Z,7.59
2023-03-12T15:45:47.806Z,7.60
2023-03-12T15:48:51.992Z,7.57
2023-03-12T15:52:03.782Z,7.61
2023-03-12T15:55:09.904Z,7.59
2023-03-12T15:58:32.894Z,7.52
2023-03-12T16:01:46.261Z,7.43
2023-03-12T16:04:49.020Z,7.30
2023-03-12T16:07:51.584Z,7.16
2023-03-12T16:10:55.565Z,7.06
2023-03-12T16:14:03.973Z,6.90
2023-03-12T16:17:13.397Z,6.76
2023-03-12T16:20:17.790Z,6.55
2023-03-12T16:23:20.777Z,6.49
2023-03-12T16:26:23.159Z,6.41
2023-03-12T16:29:31.174Z,6.35
2023-03-12T16:32:34.518Z,6.20
2023-03-12T16:35:37.335Z,6.01
2023-03-12T16:38:39.828Z,5.90
2023-03-12T16:41:42.738Z,5.84
2023-03-12T16:44:46.326Z,5.64
2023-03-12T16:47:53.420Z,5.51
2023-03-12T16:50:57.787Z,5.63
2023-03-12T16:54:09.729Z,5.60
2023-03-12T16:57:21.179Z,5.37
2023-03-12T17:00:25.926Z,5.13
2023-03-12T17:03:28.199Z,4.98
2023-03-12T17:06:31.257Z,5.06
2023-03-12T17:09:34.767Z,4.91
2023-03-12T17:12:38.856Z,4.80
2023-03-12T17:15:41.168Z,4.95
2023-03-12T17:18:43.950Z,4.81
2023-03-12T17:21:47.116Z,4.66
2023-03-12T17:24:49.736Z,4.58
2023-03-12T17:27:52.782Z,4.46
2023-03-12T17:30:55.818Z,4.35
2023-03-12T17:33:58.774Z,4.27
2023-03-12T17:37:02.470Z,4.19
2023-03-12T17:40:08.324Z,4.23
2023-03-12T17:43:11.275Z,4.13
2023-03-12T17:46:13.853Z,4.06
2023-03-12T17:49:16.626Z,3.95
2023-03-12T17:52:19.141Z,3.95
2023-03-12T17:55:21.796Z,3.89
2023-03-12T17:58:24.384Z,3.77
2023-03-12T18:01:27.339Z,3.74
2023-03-12T18:04:29.974Z,3.67
2023-03-12T18:07:32.378Z,3.57
2023-03-12T18:10:37.028Z,3.56
2023-03-12T18:13:40.977Z,3.52
2023-03-12T18:16:47.503Z,3.38
2023-03-12T18:19:49.961Z,3.29
2023-03-12T18:22:52.932Z,3.28
2023-03-12T18:25:55.375Z,3.27
2023-03-12T18:28:59.487Z,3.24
2023-03-12T18:32:01.995Z,3.25
2023-03-12T18:35:05.358Z,3.24
2023-03-12T18:38:08.434Z,3.11
2023-03-12T18:41:15.144Z,3.00
2023-03-12T18:44:17.419Z,2.96
2023-03-12T18:47:20.166Z,2.81
2023-03-12T18:50:23.538Z,2.88
2023-03-12T18:53:26.306Z,2.93
2023-03-12T18:56:28.824Z,2.85
2023-03-12T18:59:32.496Z,2.80
2023-03-12T19:02:35.629Z,2.68
2023-03-12T19:05:38.738Z,2.73
2023-03-12T19:08:41.635Z,2.64
2023-03-12T19:11:46.010Z,2.53
2023-03-12T19:14:48.443Z,2.43
2023-03-12T19:17:51.154Z,2.35
2023-03-12T19:20:53.702Z,2.31
2023-03-12T19:23:57.054Z,2.36
2023-03-12T19:26:59.502Z,2.32
2023-03-12T19:30:02.378Z,2.21
2023-03-12T19:33:06.215Z,2.37
2023-03-12T19:36:09.462Z,2.26
2023-03-12T19:39:21.129Z,2.08
2023-03-12T19:42:24.222Z,1.97
2023-03-12T19:45:26.920Z,1.89
2023-03-12T19:48:30.017Z,1.83
2023-03-12T19:51:32.534Z,1.80
2023-03-12T19:54:35.263Z,1.74
2023-03-12T19:57:39.087Z,1.70
2023-03-12T20:00:43.474Z,1.64
2023-03-12T20:03:46.104Z,1.63
2023-03-12T20:06:48.539Z,1.62
2023-03-12T20:09:51.821Z,1.65
2023-03-12T20:12:54.289Z,1.62
2023-03-12T20:15:56.981Z,1.58
2023-03-12T20:18:59.508Z,1.63
2023-03-12T20:22:02.454Z,1.58
2023-03-12T20:25:05.744Z,1.62
2023-03-12T20:28:10.864Z,1.60
2023-03-12T20:31:14.788Z,1.51
2023-03-12T20:34:17.519Z,1.49
2023-03-12T20:37:19.899Z,1.58
2023-03-12T20:40:22.619Z,1.49
2023-03-12T20:43:25.120Z,1.50
2023-03-12T20:46:27.833Z,1.45
2023-03-12T20:49:30.308Z,1.48
2023-03-12T20:52:33.276Z,1.59
2023-03-12T20:55:39.316Z,1.62
2023-03-12T20:58:42.323Z,1.65
2023-03-12T21:01:44.935Z,1.68
2023-03-12T21:04:49.424Z,1.61
2023-03-12T21:07:52.537Z,1.59
2023-03-12T21:10:55.690Z,1.58
2023-03-12T21:13:58.448Z,1.61
2023-03-12T21:17:01.140Z,1.70
2023-03-12T21:20:10.717Z,1.84
2023-03-12T21:23:15.065Z,1.97
2023-03-12T21:26:18.645Z,2.05
2023-03-12T21:29:21.459Z,2.15
2023-03-12T21:32:23.945Z,2.30
2023-03-12T21:35:26.657Z,2.55
2023-03-12T21:38:28.988Z,2.69
2023-03-12T21:41:31.867Z,2.92
2023-03-12T21:44:34.814Z,3.05
2023-03-12T21:47:37.778Z,3.28
2023-03-12T21:50:41.706Z,3.52
2023-03-12T21:53:44.572Z,3.72
2023-03-12T21:56:46.914Z,3.87
2023-03-12T21:59:49.591Z,4.02
2023-03-12T22:02:52.934Z,4.01
2023-03-12T22:05:55.520Z,4.00
2023-03-12T22:08:58.677Z,4.03
2023-03-12T22:12:01.883Z,3.99
2023-03-12T22:15:05.476Z,3.97
2023-03-12T22:18:08.204Z,3.95
2023-03-12T22:21:18.220Z,4.00
2023-03-12T22:24:20.830Z,4.10
2023-03-12T22:27:23.768Z,4.24
2023-03-12T22:30:27.229Z,4.34
2023-03-12T22:33:29.589Z,4.55
2023-03-12T22:36:32.236Z,4.60
2023-03-12T22:39:34.681Z,4.69
2023-03-12T22:42:41.031Z,4.67
2023-03-12T22:45:43.413Z,4.72
2023-03-12T22:48:46.546Z,4.73
2023-03-12T22:51:49.047Z,4.82
2023-03-12T22:54:51.692Z,4.84
2023-03-12T22:57:54.152Z,4.87
2023-03-12T23:01:00.014Z,4.90
2023-03-12T23:04:04.069Z,4.87
2023-03-12T23:07:14.017Z,5.03
2023-03-12T23:10:18.465Z,5.05
2023-03-12T23:13:21.334Z,5.11
2023-03-12T23:16:25.469Z,5.13
2023-03-12T23:19:32.382Z,5.20
2023-03-12T23:22:35.412Z,5.22
2023-03-12T23:25:38.225Z,5.28
2023-03-12T23:28:40.529Z,5.20
2023-03-12T23:31:43.153Z,5.24
2023-03-12T23:34:45.578Z,5.31
2023-03-12T23:37:49.032Z,5.32
2023-03-12T23:40:52.698Z,5.36
2023-03-12T23:43:56.002Z,5.32
2023-03-12T23:46:58.326Z,5.29
2023-03-12T23:50:01.086Z,5.27
2023-03-12T23:53:03.566Z,5.28
2023-03-12T23:56:07.941Z,5.32
2023-03-12T23:59:10.981Z,5.32
